createdAt,value
2018-09-30T00:00:37.961Z,6.23
2018-09-30T00:03:06.117Z,7.33
2018-09-30T00:05:34.354Z,6.40
2018-09-30T00:08:02.499Z,8.10
2018-09-30T00:10:30.880Z,7.70
2018-09-30T00:12:59.105Z,6.47
2018-09-30T00:15:27.308Z,10.17
2018-09-30T00:17:55.479Z,7.17
2018-09-30T00:20:23.637Z,7.17
2018-09-30T00:22:51.813Z,6.30
2018-09-30T00:25:25.259Z,6.47
2018-09-30T00:27:53.426Z,6.67
2018-09-30T00:30:21.618Z,6.17
2018-09-30T00:32:49.809Z,6.63
2018-09-30T00:35:18.120Z,6.80
2018-09-30T00:37:46.297Z,9.50
2018-09-30T00:40:14.601Z,7.77
2018-09-30T00:42:42.830Z,5.15
2018-09-30T00:45:11.097Z,6.12
2018-09-30T00:47:39.352Z,9.25
2018-09-30T00:50:07.563Z,5.53
2018-09-30T00:52:35.801Z,6.87
2018-09-30T00:55:04.136Z,5.35
2018-09-30T00:57:32.298Z,5.60
2018-09-30T01:00:01.099Z,5.87
2018-09-30T01:02:29.236Z,5.60
2018-09-30T01:04:57.325Z,6.40
2018-09-30T01:07:25.506Z,5.50
2018-09-30T01:09:53.938Z,5.75
2018-09-30T01:12:22.125Z,6.20
2018-09-30T01:14:50.338Z,6.95
2018-09-30T01:17:18.542Z,6.80
2018-09-30T01:19:46.852Z,5.30
2018-09-30T01:22:15.049Z,7.23
2018-09-30T01:24:43.287Z,7.97
2018-09-30T01:27:11.556Z,7.33
2018-09-30T01:29:39.751Z,5.78
2018-09-30T01:32:07.900Z,5.47
2018-09-30T01:34:36.142Z,5.45
2018-09-30T01:37:04.345Z,6.10
2018-09-30T01:39:32.672Z,5.80
2018-09-30T01:42:00.998Z,6.03
2018-09-30T01:44:29.160Z,5.35
2018-09-30T01:46:57.350Z,5.62
2018-09-30T01:49:25.664Z,6.03
2018-09-30T01:52:05.128Z,6.12
2018-09-30T01:54:33.243Z,5.55
2018-09-30T01:57:01.420Z,6.80
2018-09-30T01:59:29.594Z,6.75
2018-09-30T02:01:57.768Z,6.35
2018-09-30T02:04:25.887Z,6.42
2018-09-30T02:06:54.207Z,6.30
2018-09-30T02:09:22.392Z,7.70
2018-09-30T02:11:50.662Z,7.17
2018-09-30T02:14:18.953Z,6.78
2018-09-30T02:16:47.141Z,6.55
2018-09-30T02:19:15.350Z,6.30
2018-09-30T02:21:43.527Z,6.37
2018-09-30T02:24:11.738Z,7.00
2018-09-30T02:26:39.911Z,7.33
2018-09-30T02:29:08.113Z,5.92
2018-09-30T02:31:36.271Z,5.72
2018-09-30T02:34:04.361Z,5.80
2018-09-30T02:36:32.517Z,5.42
2018-09-30T02:39:00.797Z,5.60
2018-09-30T02:41:28.963Z,5.40
2018-09-30T02:43:57.180Z,5.87
2018-09-30T02:46:25.361Z,6.35
2018-09-30T02:48:53.489Z,6.65
2018-09-30T02:51:21.678Z,8.58
2018-09-30T02:53:49.874Z,12.30
2018-09-30T02:56:18.047Z,13.22
2018-09-30T02:58:46.284Z,17.15
2018-09-30T03:01:14.508Z,10.08
2018-09-30T03:03:42.651Z,10.38
2018-09-30T03:06:16.085Z,8.38
2018-09-30T03:08:49.741Z,10.00
2018-09-30T03:11:17.901Z,8.95
2018-09-30T03:13:46.018Z,7.80
2018-09-30T03:16:14.294Z,5.78
2018-09-30T03:18:42.504Z,6.45
2018-09-30T03:21:10.748Z,6.37
2018-09-30T03:23:39.042Z,6.65
2018-09-30T03:26:07.366Z,6.42
2018-09-30T03:28:35.613Z,6.47
2018-09-30T03:31:03.914Z,6.03
2018-09-30T03:33:32.177Z,6.92
2018-09-30T03:36:00.626Z,7.17
2018-09-30T03:38:28.915Z,6.47
2018-09-30T03:40:57.122Z,7.58
2018-09-30T03:43:25.300Z,6.83
2018-09-30T03:45:53.413Z,5.72
2018-09-30T03:48:21.574Z,6.85
2018-09-30T03:50:49.666Z,5.90
2018-09-30T03:53:17.816Z,7.33
2018-09-30T03:55:45.968Z,5.42
2018-09-30T03:58:14.129Z,6.40
2018-09-30T04:00:42.233Z,6.22
2018-09-30T04:03:10.613Z,6.03
2018-09-30T04:05:38.760Z,6.03
2018-09-30T04:08:06.991Z,5.42
2018-09-30T04:10:35.283Z,5.78
2018-09-30T04:13:03.448Z,6.50
2018-09-30T04:15:31.631Z,5.42
2018-09-30T04:17:59.859Z,5.33
2018-09-30T04:20:28.138Z,6.22
2018-09-30T04:22:56.310Z,5.80
2018-09-30T04:25:25.338Z,6.28
2018-09-30T04:27:56.796Z,5.00
2018-09-30T04:30:25.044Z,5.87
2018-09-30T04:32:53.893Z,5.22
2018-09-30T04:35:22.540Z,6.55
2018-09-30T04:37:50.844Z,6.87
2018-09-30T04:40:19.135Z,6.22
2018-09-30T04:42:47.300Z,5.45
2018-09-30T04:45:15.514Z,6.25
2018-09-30T04:47:43.767Z,6.80
2018-09-30T04:50:12.013Z,5.95
2018-09-30T04:52:43.240Z,5.83
2018-09-30T04:55:11.408Z,6.25
2018-09-30T04:57:39.531Z,5.20
2018-09-30T05:00:07.729Z,5.37
2018-09-30T05:02:35.993Z,5.80
2018-09-30T05:05:04.279Z,5.40
2018-09-30T05:07:32.429Z,5.60
2018-09-30T05:10:00.557Z,5.92
2018-09-30T05:12:28.730Z,5.40
2018-09-30T05:14:57.354Z,5.22
2018-09-30T05:17:25.494Z,5.90
2018-09-30T05:19:53.955Z,6.33
2018-09-30T05:22:22.131Z,5.90
2018-09-30T05:24:50.291Z,6.03
2018-09-30T05:27:18.408Z,7.95
2018-09-30T05:29:46.533Z,5.67
2018-09-30T05:32:14.714Z,6.10
2018-09-30T05:34:43.296Z,5.95
2018-09-30T05:37:11.624Z,5.42
2018-09-30T05:39:39.756Z,6.10
2018-09-30T05:42:08.069Z,5.35
2018-09-30T05:44:36.212Z,5.50
2018-09-30T05:47:04.383Z,5.95
2018-09-30T05:49:33.478Z,5.70
2018-09-30T05:52:01.618Z,5.95
2018-09-30T05:54:29.714Z,5.03
2018-09-30T05:56:57.991Z,5.55
2018-09-30T05:59:26.161Z,6.05
2018-09-30T06:01:54.428Z,5.10
2018-09-30T06:04:22.589Z,5.67
2018-09-30T06:06:50.699Z,6.12
2018-09-30T06:09:18.841Z,5.17
2018-09-30T06:11:47.657Z,4.72
2018-09-30T06:14:16.498Z,5.30
2018-09-30T06:16:44.696Z,5.30
2018-09-30T06:19:12.917Z,5.03
2018-09-30T06:21:41.500Z,5.03
2018-09-30T06:24:10.702Z,4.12
2018-09-30T06:26:38.958Z,5.33
2018-09-30T06:29:07.208Z,4.85
2018-09-30T06:31:35.482Z,4.62
2018-09-30T06:34:03.634Z,5.15
2018-09-30T06:36:31.951Z,4.87
2018-09-30T06:39:00.150Z,4.40
2018-09-30T06:41:28.396Z,4.78
2018-09-30T06:43:56.625Z,5.00
2018-09-30T06:46:24.822Z,4.70
2018-09-30T06:48:52.930Z,4.60
2018-09-30T06:51:21.200Z,4.42
2018-09-30T06:53:49.343Z,4.60
2018-09-30T06:56:17.524Z,4.78
2018-09-30T06:58:45.687Z,4.77
2018-09-30T07:01:13.841Z,4.83
2018-09-30T07:03:42.072Z,5.03
2018-09-30T07:06:10.367Z,4.67
2018-09-30T07:08:38.594Z,5.40
2018-09-30T07:11:06.776Z,5.10
2018-09-30T07:13:34.969Z,4.43
2018-09-30T07:16:03.181Z,4.40
2018-09-30T07:18:31.324Z,5.00
2018-09-30T07:20:59.495Z,4.30
2018-09-30T07:23:27.633Z,5.30
2018-09-30T07:25:55.789Z,4.67
2018-09-30T07:28:23.911Z,4.43
2018-09-30T07:30:52.130Z,4.10
2018-09-30T07:33:20.275Z,4.53
2018-09-30T07:35:48.445Z,5.07
2018-09-30T07:38:16.631Z,4.70
2018-09-30T07:40:44.812Z,4.10
2018-09-30T07:43:13.007Z,4.23
2018-09-30T07:45:41.319Z,4.87
2018-09-30T07:48:09.523Z,4.77
2018-09-30T07:50:37.916Z,4.80
2018-09-30T07:53:06.198Z,3.53
2018-09-30T07:55:34.366Z,4.17
2018-09-30T07:58:02.581Z,3.87
2018-09-30T08:00:30.809Z,4.40
2018-09-30T08:02:59.195Z,3.80
2018-09-30T08:05:27.455Z,4.27
2018-09-30T08:07:55.798Z,4.10
2018-09-30T08:10:24.416Z,3.53
2018-09-30T08:12:53.168Z,3.73
2018-09-30T08:15:21.342Z,4.37
2018-09-30T08:17:49.560Z,4.73
2018-09-30T08:20:17.681Z,4.53
2018-09-30T08:22:45.958Z,4.10
2018-09-30T08:25:14.140Z,4.40
2018-09-30T08:27:42.457Z,4.00
2018-09-30T08:30:10.698Z,4.53
2018-09-30T08:32:38.888Z,4.57
2018-09-30T08:35:07.139Z,4.17
2018-09-30T08:37:40.846Z,4.33
2018-09-30T08:40:09.298Z,4.23
2018-09-30T08:45:11.983Z,4.47
2018-09-30T08:47:40.489Z,5.30
2018-09-30T08:50:08.643Z,4.00
2018-09-30T08:52:36.828Z,5.00
2018-09-30T08:55:05.131Z,3.90
2018-09-30T08:57:33.263Z,4.70
2018-09-30T09:00:01.511Z,4.53
2018-09-30T09:02:29.798Z,4.23
2018-09-30T09:04:58.027Z,4.63
2018-09-30T09:07:26.247Z,3.60
2018-09-30T09:09:54.625Z,4.03
2018-09-30T09:12:22.810Z,5.13
2018-09-30T09:14:51.293Z,5.10
2018-09-30T09:17:19.554Z,3.87
2018-09-30T09:19:47.966Z,3.80
2018-09-30T09:22:16.251Z,3.27
2018-09-30T09:24:44.453Z,3.67
2018-09-30T09:27:12.729Z,3.37
2018-09-30T09:29:40.926Z,3.43
2018-09-30T09:32:13.640Z,4.33
2018-09-30T09:34:41.890Z,3.27
2018-09-30T09:37:10.415Z,3.87
2018-09-30T09:39:38.584Z,4.73
2018-09-30T09:42:07.612Z,3.90
2018-09-30T09:44:35.845Z,5.47
2018-09-30T09:47:04.257Z,3.40
2018-09-30T09:49:32.514Z,3.37
2018-09-30T09:52:00.832Z,4.50
2018-09-30T09:54:29.012Z,5.13
2018-09-30T09:56:57.378Z,3.50
2018-09-30T09:59:30.061Z,4.37
2018-09-30T10:01:58.185Z,5.53
2018-09-30T10:04:26.407Z,4.40
2018-09-30T10:06:54.963Z,4.03
2018-09-30T10:09:23.298Z,3.63
2018-09-30T10:11:51.557Z,3.63
2018-09-30T10:14:20.095Z,3.50
2018-09-30T10:16:48.944Z,3.80
2018-09-30T10:19:17.234Z,3.37
2018-09-30T10:21:45.418Z,2.63
2018-09-30T10:24:13.761Z,2.83
2018-09-30T10:26:42.021Z,3.37
2018-09-30T10:29:10.261Z,5.47
2018-09-30T10:31:38.422Z,3.83
2018-09-30T10:34:08.068Z,2.80
2018-09-30T10:36:36.242Z,4.10
2018-09-30T10:39:06.422Z,3.47
2018-09-30T10:41:35.359Z,4.00
2018-09-30T10:44:03.650Z,2.73
2018-09-30T10:46:32.864Z,2.87
2018-09-30T10:49:01.041Z,3.27
2018-09-30T10:51:29.166Z,4.17
2018-09-30T10:53:57.430Z,3.90
2018-09-30T10:56:25.658Z,3.20
2018-09-30T10:58:53.912Z,2.70
2018-09-30T11:01:22.137Z,3.17
2018-09-30T11:03:50.461Z,2.73
2018-09-30T11:06:18.855Z,3.27
2018-09-30T11:08:47.050Z,3.03
2018-09-30T11:11:15.711Z,3.50
2018-09-30T11:13:43.940Z,4.03
2018-09-30T11:16:12.217Z,3.80
2018-09-30T11:18:40.429Z,3.00
2018-09-30T11:21:08.829Z,2.97
2018-09-30T11:23:37.023Z,3.07
2018-09-30T11:26:05.569Z,3.83
2018-09-30T11:28:33.808Z,3.10
2018-09-30T11:31:02.116Z,2.70
2018-09-30T11:33:30.684Z,3.00
2018-09-30T11:35:58.877Z,3.43
2018-09-30T11:38:27.288Z,2.90
2018-09-30T11:40:55.474Z,4.30
2018-09-30T11:43:24.038Z,3.30
2018-09-30T11:45:52.289Z,4.10
2018-09-30T11:48:20.719Z,2.70
2018-09-30T11:50:48.962Z,3.10
2018-09-30T11:53:17.151Z,3.13
2018-09-30T11:55:45.333Z,3.30
2018-09-30T11:58:13.565Z,2.37
2018-09-30T12:00:41.932Z,3.57
2018-09-30T12:03:10.116Z,3.07
2018-09-30T12:05:38.317Z,2.90
2018-09-30T12:08:06.501Z,2.23
2018-09-30T12:10:34.766Z,2.47
2018-09-30T12:13:03.067Z,2.83
2018-09-30T12:15:31.345Z,3.20
2018-09-30T12:17:59.618Z,3.03
2018-09-30T12:20:27.911Z,3.67
2018-09-30T12:22:56.144Z,3.57
2018-09-30T12:25:24.531Z,2.60
2018-09-30T12:27:52.797Z,3.20
2018-09-30T12:30:21.178Z,2.70
2018-09-30T12:32:49.645Z,2.50
2018-09-30T12:35:17.848Z,2.70
2018-09-30T12:37:46.039Z,3.30
2018-09-30T12:40:14.183Z,2.67
2018-09-30T12:42:42.363Z,2.77
2018-09-30T12:45:10.583Z,2.60
2018-09-30T12:47:38.717Z,3.10
2018-09-30T12:50:07.005Z,2.90
2018-09-30T12:52:35.291Z,4.33
2018-09-30T12:55:03.454Z,3.30
2018-09-30T12:57:31.697Z,2.67
2018-09-30T12:59:59.901Z,3.27
2018-09-30T13:02:28.185Z,3.20
2018-09-30T13:04:56.421Z,2.73
2018-09-30T13:07:24.980Z,3.87
2018-09-30T13:09:53.328Z,2.80
2018-09-30T13:12:21.487Z,2.80
2018-09-30T13:14:49.943Z,3.37
2018-09-30T13:17:18.150Z,3.30
2018-09-30T13:19:46.389Z,3.67
2018-09-30T13:22:14.661Z,2.37
2018-09-30T13:24:42.798Z,2.47
2018-09-30T13:27:11.769Z,2.47
2018-09-30T13:29:40.248Z,2.63
2018-09-30T13:32:08.467Z,2.13
2018-09-30T13:34:36.591Z,3.13
2018-09-30T13:37:04.870Z,3.00
2018-09-30T13:39:33.041Z,3.53
2018-09-30T13:42:01.228Z,3.27
2018-09-30T13:44:29.387Z,3.10
2018-09-30T13:46:57.570Z,3.80
2018-09-30T13:49:26.657Z,2.63
2018-09-30T13:51:54.838Z,2.80
2018-09-30T13:54:23.139Z,4.03
2018-09-30T13:56:52.325Z,2.50
2018-09-30T13:59:20.580Z,2.53
2018-09-30T14:01:48.831Z,2.90
2018-09-30T14:04:17.170Z,2.07
2018-09-30T14:06:50.997Z,4.23
2018-09-30T14:09:19.149Z,3.07
2018-09-30T14:11:47.287Z,1.93
2018-09-30T14:14:15.432Z,3.00
2018-09-30T14:16:43.527Z,2.20
2018-09-30T14:19:11.708Z,4.00
2018-09-30T14:21:39.893Z,3.50
2018-09-30T14:24:08.127Z,3.50
2018-09-30T14:26:36.735Z,3.40
2018-09-30T14:29:05.104Z,2.83
2018-09-30T14:31:33.258Z,3.03
2018-09-30T14:34:01.492Z,2.63
2018-09-30T14:36:30.289Z,2.93
2018-09-30T14:38:58.509Z,4.60
2018-09-30T14:41:27.653Z,2.93
2018-09-30T14:43:55.826Z,2.70
2018-09-30T14:46:24.183Z,4.00
2018-09-30T14:48:52.324Z,3.40
2018-09-30T14:51:21.085Z,4.23
2018-09-30T14:53:49.853Z,2.47
2018-09-30T14:56:18.104Z,2.90
2018-09-30T14:58:46.343Z,4.50
2018-09-30T15:01:14.562Z,2.83
2018-09-30T15:03:42.797Z,3.10
2018-09-30T15:06:11.201Z,4.87
2018-09-30T15:08:39.298Z,3.27
2018-09-30T15:11:07.565Z,4.87
2018-09-30T15:13:35.856Z,2.93
2018-09-30T15:16:04.095Z,2.97
2018-09-30T15:18:32.397Z,2.33
2018-09-30T15:21:00.669Z,2.93
2018-09-30T15:23:28.847Z,3.87
2018-09-30T15:25:57.179Z,3.43
2018-09-30T15:28:25.473Z,2.87
2018-09-30T15:30:53.690Z,3.40
2018-09-30T15:33:21.865Z,3.20
2018-09-30T15:35:50.057Z,3.87
2018-09-30T15:38:18.200Z,3.53
2018-09-30T15:40:46.565Z,3.80
2018-09-30T15:43:21.615Z,3.90
2018-09-30T15:45:50.306Z,3.83
2018-09-30T15:48:18.446Z,6.10
2018-09-30T15:50:46.660Z,3.57
2018-09-30T15:53:14.795Z,4.23
2018-09-30T15:55:43.016Z,4.00
2018-09-30T15:58:11.514Z,4.57
2018-09-30T16:00:39.704Z,4.20
2018-09-30T16:03:07.968Z,8.70
2018-09-30T16:05:36.222Z,4.17
2018-09-30T16:08:04.381Z,3.70
2018-09-30T16:10:32.926Z,3.33
2018-09-30T16:13:01.181Z,3.73
2018-09-30T16:15:29.361Z,2.90
2018-09-30T16:17:57.968Z,4.37
2018-09-30T16:20:26.300Z,4.37
2018-09-30T16:22:54.603Z,4.27
2018-09-30T16:25:22.974Z,4.00
2018-09-30T16:27:51.182Z,4.50
2018-09-30T16:30:20.059Z,3.67
2018-09-30T16:32:48.483Z,4.80
2018-09-30T16:35:16.765Z,4.90
2018-09-30T16:37:45.018Z,5.20
2018-09-30T16:40:15.225Z,4.70
2018-09-30T16:42:43.422Z,5.73
2018-09-30T16:45:14.199Z,4.87
2018-09-30T16:47:42.537Z,5.53
2018-09-30T16:50:10.721Z,5.43
2018-09-30T16:52:38.966Z,6.40
2018-09-30T16:55:07.159Z,5.97
2018-09-30T16:57:36.001Z,6.33
2018-09-30T17:00:04.298Z,6.33
2018-09-30T17:02:33.136Z,6.10
2018-09-30T17:05:01.407Z,6.43
2018-09-30T17:07:29.605Z,5.67
2018-09-30T17:09:57.756Z,6.77
2018-09-30T17:12:26.452Z,6.27
2018-09-30T17:14:54.606Z,5.90
2018-09-30T17:17:22.886Z,6.23
2018-09-30T17:19:51.263Z,7.10
2018-09-30T17:24:57.305Z,7.63
2018-09-30T17:27:26.377Z,7.27
2018-09-30T17:29:54.702Z,8.00
2018-09-30T17:32:22.987Z,11.70
2018-09-30T17:34:51.229Z,10.30
2018-09-30T17:37:19.498Z,9.67
2018-09-30T17:39:47.903Z,10.33
2018-09-30T17:42:16.144Z,8.40
2018-09-30T17:44:44.399Z,9.10
2018-09-30T17:47:12.627Z,8.40
2018-09-30T17:49:41.768Z,11.33
2018-09-30T17:52:10.149Z,9.70
2018-09-30T17:54:38.437Z,10.80
2018-09-30T17:57:06.824Z,8.83
2018-09-30T17:59:35.318Z,12.23
2018-09-30T18:02:03.626Z,12.83
2018-09-30T18:04:31.899Z,13.13
2018-09-30T18:07:00.402Z,13.47
2018-09-30T18:09:28.789Z,13.00
2018-09-30T18:11:57.053Z,14.30
2018-09-30T18:14:25.585Z,13.83
2018-09-30T18:16:54.054Z,17.53
2018-09-30T18:19:22.381Z,13.67
2018-09-30T18:21:50.841Z,14.13
2018-09-30T18:24:19.319Z,14.83
2018-09-30T18:26:47.549Z,16.63
2018-09-30T18:29:17.189Z,15.33
2018-09-30T18:31:45.792Z,16.37
2018-09-30T18:34:14.111Z,16.57
2018-09-30T18:36:42.429Z,15.03
2018-09-30T18:39:12.017Z,16.73
2018-09-30T18:41:41.175Z,14.57
2018-09-30T18:44:09.680Z,14.57
2018-09-30T18:46:38.177Z,17.03
2018-09-30T18:49:06.511Z,14.97
2018-09-30T18:51:35.003Z,16.73
2018-09-30T18:54:04.132Z,17.50
2018-09-30T18:56:32.777Z,16.77
2018-09-30T18:59:01.789Z,16.60
2018-09-30T19:01:30.328Z,13.83
2018-09-30T19:03:58.665Z,18.30
2018-09-30T19:06:27.072Z,13.57
2018-09-30T19:08:55.494Z,18.03
2018-09-30T19:11:25.653Z,16.07
2018-09-30T19:13:54.744Z,16.30
2018-09-30T19:16:23.203Z,14.07
2018-09-30T19:18:57.982Z,13.97
2018-09-30T19:21:26.529Z,13.43
2018-09-30T19:23:55.001Z,14.00
2018-09-30T19:26:23.502Z,15.13
2018-09-30T19:28:52.707Z,16.67
2018-09-30T19:31:21.321Z,14.87
2018-09-30T19:33:49.661Z,15.13
2018-09-30T19:36:18.724Z,20.87
2018-09-30T19:38:47.091Z,14.77
2018-09-30T19:41:15.380Z,16.33
2018-09-30T19:43:43.696Z,15.03
2018-09-30T19:46:12.124Z,16.87
2018-09-30T19:48:40.611Z,16.90
2018-09-30T19:51:09.094Z,15.33
2018-09-30T19:53:37.604Z,16.67
2018-09-30T19:56:05.908Z,17.83
2018-09-30T19:58:34.172Z,16.70
2018-09-30T20:01:02.472Z,16.50
2018-09-30T20:03:30.759Z,15.23
2018-09-30T20:05:59.692Z,15.60
2018-09-30T20:08:28.780Z,16.93
2018-09-30T20:10:57.111Z,16.33
2018-09-30T20:13:25.738Z,17.37
2018-09-30T20:15:54.258Z,16.63
2018-09-30T20:18:22.585Z,18.40
2018-09-30T20:20:50.865Z,18.33
2018-09-30T20:23:19.149Z,16.40
2018-09-30T20:25:47.575Z,15.40
2018-09-30T20:28:15.944Z,14.93
2018-09-30T20:30:44.358Z,18.63
2018-09-30T20:33:12.624Z,13.57
2018-09-30T20:35:40.810Z,15.53
2018-09-30T20:38:16.011Z,13.83
2018-09-30T20:40:45.249Z,14.17
2018-09-30T20:43:13.485Z,13.33
2018-09-30T20:45:41.672Z,15.93
2018-09-30T20:48:10.212Z,16.13
2018-09-30T20:50:38.844Z,15.23
2018-09-30T20:53:07.451Z,16.80
2018-09-30T20:55:36.000Z,16.20
2018-09-30T20:58:04.543Z,15.93
2018-09-30T21:00:32.906Z,14.67
2018-09-30T21:03:01.172Z,17.07
2018-09-30T21:06:39.996Z,15.50
2018-09-30T21:09:10.396Z,14.67
2018-09-30T21:11:39.106Z,16.60
2018-09-30T21:14:07.348Z,13.70
2018-09-30T21:16:35.728Z,14.80
2018-09-30T21:19:03.900Z,15.77
2018-09-30T21:21:32.093Z,15.10
2018-09-30T21:24:00.405Z,16.77
2018-09-30T21:26:35.373Z,19.03
2018-09-30T21:29:03.568Z,14.17
2018-09-30T21:31:32.844Z,14.40
2018-09-30T21:34:02.701Z,15.63
2018-09-30T21:36:31.280Z,15.37
2018-09-30T21:39:01.813Z,15.30
2018-09-30T21:41:30.050Z,17.33
2018-09-30T21:44:01.502Z,15.10
2018-09-30T21:46:29.804Z,14.20
2018-09-30T21:48:57.974Z,14.37
2018-09-30T21:51:26.332Z,15.47
2018-09-30T21:53:54.580Z,15.27
2018-09-30T21:56:23.820Z,14.30
2018-09-30T21:58:52.073Z,15.13
2018-09-30T22:01:20.273Z,15.30
2018-09-30T22:03:48.550Z,15.10
2018-09-30T22:06:16.879Z,15.40
2018-09-30T22:08:45.050Z,16.20
2018-09-30T22:11:13.174Z,15.87
2018-09-30T22:13:45.965Z,15.47
2018-09-30T22:16:14.408Z,15.00
2018-09-30T22:18:42.580Z,16.07
2018-09-30T22:21:10.790Z,16.03
2018-09-30T22:23:39.602Z,15.07
2018-09-30T22:26:07.791Z,14.57
2018-09-30T22:28:35.985Z,14.47
2018-09-30T22:31:04.246Z,14.53
2018-09-30T22:33:32.403Z,15.40
2018-09-30T22:36:00.624Z,14.97
2018-09-30T22:38:28.870Z,15.00
2018-09-30T22:40:57.374Z,14.77
2018-09-30T22:43:25.624Z,15.77
2018-09-30T22:45:53.764Z,14.73
2018-09-30T22:48:22.208Z,16.50
2018-09-30T22:50:50.355Z,16.20
2018-09-30T22:53:19.014Z,16.07
2018-09-30T22:55:47.226Z,15.37
2018-09-30T22:58:15.405Z,15.93
2018-09-30T23:00:43.635Z,16.10
2018-09-30T23:03:11.849Z,16.77
2018-09-30T23:05:40.010Z,16.75
2018-09-30T23:08:08.149Z,16.45
2018-09-30T23:10:36.281Z,18.87
2018-09-30T23:13:04.478Z,17.82
2018-09-30T23:15:32.684Z,17.23
2018-09-30T23:18:00.800Z,17.12
2018-09-30T23:20:28.952Z,17.12
2018-09-30T23:22:57.099Z,16.87
2018-09-30T23:25:25.351Z,15.38
2018-09-30T23:27:53.572Z,16.10
2018-09-30T23:30:21.743Z,15.35
2018-09-30T23:32:49.876Z,15.40
2018-09-30T23:35:18.131Z,15.57
2018-09-30T23:37:46.909Z,17.70
2018-09-30T23:40:15.088Z,15.00
2018-09-30T23:42:43.289Z,15.33
2018-09-30T23:45:11.514Z,15.07
2018-09-30T23:47:39.709Z,15.40
2018-09-30T23:50:07.883Z,14.67
2018-09-30T23:52:36.135Z,15.40
2018-09-30T23:55:04.518Z,15.50
2018-09-30T23:57:32.707Z,15.93
